International Virtual Aviation Organisation

Eastern Europe and Northern Asia MCD

 
UEEE 110300Z 33007MPS 9999 -SN NSC M05/M11 Q1013 R23L/450143 NOSIG RMK QFE751
QNH:(hPa/inHg/mmHg)1013 / 29.91 / 760
QFE:(hPa/inHg/mmHg)1001 / 29.56 / 751
Temperature-5
Dew Point-11
Visibility> 10000
WeatherLight Snow
Cloud Cover
Transition Height1000 m./3700 ft.
Transition LevelFL50
SQUAWK